»·PEaware :: N5268J KSMO-KSNA

N5268J :: KSMO-KSNA

FLIGHT INFORMATION

Flight Status: Arrived
Operator: Privately registered:
United States
More flights under this callsign
Pilot: John P. (31881)
Aircraft: BEECH AIRCRAFT BONANZA
(BE36)
More flights by this aircraft type
Origin: KSMO Santa Monica Mun
United States
Destination: KSNA John Wayne-Orange Co
United States
More flights between these airports :: More routes between these airports
Route: SMO VPLSR SNA
File this flight plan on PilotEdge
Remarks: Via Mini Route
Altitude:
(Current/Filed)
2,500ft
Speed:
(Current/Filed)
167kts
Departed: 19-Oct-20 07:58 PM
Arrived: 19-Oct-20 08:17 PM
Distance/Time
Traveled:
35nm/0:19
Distance/Time
To Go:
Arrived

Flight Plot

Page will automatically refresh every two minutes.

Flight plan parsing failed; only flown route is shown


Map Options




Map Legend


Flown Route
Filed Route
Departure Airport
Arrival Airport
Navaid (VOR, NDB)
Fix

Horizontal Profiles

Position Reports

Time Latitude Longitude Heading Altitude Ground
Speed
19-Oct-20 19:22 0.000408 0.013975 359 3ft 0kts
19-Oct-20 19:24 34.018567 -118.446528 145 148ft 0kts
19-Oct-20 19:24 34.018567 -118.446528 145 148ft 0kts
19-Oct-20 19:25 34.018567 -118.446528 145 148ft 0kts
19-Oct-20 19:26 34.018567 -118.446528 145 169ft 0kts
19-Oct-20 19:27 34.018567 -118.446528 144 169ft 0kts
19-Oct-20 19:28 34.018566 -118.446528 144 169ft 0kts
19-Oct-20 19:29 34.018566 -118.446528 144 169ft 0kts
19-Oct-20 19:30 34.018566 -118.446528 144 169ft 0kts
19-Oct-20 19:31 34.018566 -118.446528 144 169ft 0kts
19-Oct-20 19:32 34.018566 -118.446528 144 169ft 0kts
19-Oct-20 19:33 34.018567 -118.446528 144 169ft 0kts
19-Oct-20 19:34 34.018567 -118.446528 144 169ft 0kts
19-Oct-20 19:35 34.018567 -118.446528 144 169ft 0kts
19-Oct-20 19:36 34.018567 -118.446528 144 169ft 0kts
19-Oct-20 19:37 34.018567 -118.446528 144 169ft 0kts
19-Oct-20 19:38 34.018567 -118.446528 144 169ft 0kts
19-Oct-20 19:39 34.018567 -118.446528 144 169ft 0kts
19-Oct-20 19:40 34.018567 -118.446528 144 169ft 0kts
19-Oct-20 19:41 34.018566 -118.446528 144 169ft 0kts
19-Oct-20 19:42 34.018566 -118.446528 144 169ft 0kts
19-Oct-20 19:43 34.018566 -118.446528 144 169ft 0kts
19-Oct-20 19:44 34.018566 -118.446528 144 169ft 0kts
19-Oct-20 19:45 34.018566 -118.446528 144 169ft 0kts
19-Oct-20 19:46 34.018566 -118.446528 144 169ft 0kts
19-Oct-20 19:47 34.018566 -118.446528 144 169ft 0kts
19-Oct-20 19:48 34.018566 -118.446528 144 169ft 0kts
19-Oct-20 19:49 34.018566 -118.446528 144 169ft 0kts
19-Oct-20 19:50 34.018566 -118.446528 144 169ft 0kts
19-Oct-20 19:51 34.018566 -118.446528 144 169ft 0kts
19-Oct-20 19:52 34.018566 -118.446528 144 169ft 0kts
19-Oct-20 19:53 34.019882 -118.445452 9 174ft 0kts
19-Oct-20 19:54 34.019882 -118.445452 9 174ft 0kts
19-Oct-20 19:55 34.019882 -118.445452 9 174ft 0kts
19-Oct-20 19:56 34.020105 -118.445428 1 175ft 8kts
19-Oct-20 19:57 34.008878 -118.459793 225 374ft 114kts
19-Oct-20 19:58 33.990273 -118.485908 235 1888ft 104kts
19-Oct-20 19:59 34.010273 -118.507241 344 2496ft 140kts
19-Oct-20 20:00 34.031333 -118.475850 103 2545ft 153kts
19-Oct-20 20:01 34.000184 -118.442853 139 2535ft 154kts
19-Oct-20 20:02 33.965815 -118.413349 148 2539ft 151kts
19-Oct-20 20:03 33.930456 -118.386868 147 2537ft 151kts
19-Oct-20 20:04 33.895611 -118.360614 147 2539ft 151kts
19-Oct-20 20:05 33.870618 -118.320324 117 2539ft 153kts
19-Oct-20 20:06 33.850910 -118.273826 116 2534ft 169kts
19-Oct-20 20:07 33.829911 -118.224700 116 2546ft 170kts
19-Oct-20 20:08 33.808158 -118.174007 116 2548ft 171kts
19-Oct-20 20:09 33.786352 -118.123210 117 2544ft 171kts
19-Oct-20 20:10 33.764518 -118.072451 116 2549ft 171kts
19-Oct-20 20:11 33.742593 -118.021590 116 2548ft 171kts
19-Oct-20 20:12 33.720954 -117.971397 117 2545ft 172kts
19-Oct-20 20:13 33.699703 -117.922121 117 2545ft 172kts
19-Oct-20 20:14 33.696012 -117.875222 59 1676ft 162kts
19-Oct-20 20:15 33.682172 -117.864658 209 79ft 104kts
19-Oct-20 20:16 33.676039 -117.869840 304 54ft 0kts
19-Oct-20 20:17 33.676167 -117.871227 5 51ft 0kts
19-Oct-20 20:18 33.676167 -117.871227 5 51ft 0kts
19-Oct-20 20:19 33.676167 -117.871227 5 51ft 0kts

Navigation Log

Ident Type
Flight plan parsing failed, navigation log unavailable